createdAt,value
2022-12-04T00:01:13.766Z,2.42
2022-12-04T00:03:40.999Z,2.10
2022-12-04T00:06:11.546Z,2.45
2022-12-04T00:11:07.635Z,0.70
2022-12-04T00:13:35.300Z,2.28
2022-12-04T00:16:04.736Z,0.90
2022-12-04T00:18:31.428Z,2.08
2022-12-04T00:20:57.985Z,1.33
2022-12-04T00:23:24.513Z,1.75
2022-12-04T00:25:53.321Z,1.67
2022-12-04T00:28:19.946Z,2.33
2022-12-04T00:30:46.550Z,2.17
2022-12-04T00:33:14.130Z,1.35
2022-12-04T00:35:41.007Z,2.35
2022-12-04T00:38:07.608Z,1.92
2022-12-04T00:40:34.268Z,2.05
2022-12-04T00:43:01.009Z,1.58
2022-12-04T00:45:27.767Z,3.72
2022-12-04T00:47:54.399Z,1.58
2022-12-04T00:50:21.572Z,1.52
2022-12-04T00:52:48.171Z,1.48
2022-12-04T00:55:14.792Z,1.88
2022-12-04T00:57:41.778Z,1.50
2022-12-04T01:00:08.817Z,1.77
2022-12-04T01:02:35.422Z,2.50
2022-12-04T01:05:02.230Z,2.03
2022-12-04T01:07:28.848Z,2.45
2022-12-04T01:09:55.799Z,2.33
2022-12-04T01:12:22.577Z,2.05
2022-12-04T01:14:49.173Z,1.90
2022-12-04T01:17:15.769Z,2.17
2022-12-04T01:19:42.429Z,2.42
2022-12-04T01:22:09.109Z,2.25
2022-12-04T01:24:35.749Z,2.42
2022-12-04T01:27:02.310Z,2.08
2022-12-04T01:29:28.840Z,2.15
2022-12-04T01:31:55.521Z,2.25
2022-12-04T01:34:22.284Z,2.67
2022-12-04T01:36:48.817Z,2.50
2022-12-04T01:39:15.338Z,1.80
2022-12-04T01:41:42.024Z,2.17
2022-12-04T01:44:26.502Z,3.22
2022-12-04T01:46:56.031Z,2.47
2022-12-04T01:49:31.305Z,1.50
2022-12-04T01:52:02.346Z,2.17
2022-12-04T01:54:36.214Z,2.80
2022-12-04T01:57:21.255Z,2.10
2022-12-04T02:02:32.304Z,3.00
2022-12-04T02:05:00.755Z,2.08
2022-12-04T02:07:28.175Z,2.13
2022-12-04T02:09:56.399Z,2.10
2022-12-04T02:12:36.722Z,1.70
2022-12-04T02:15:28.492Z,1.95
2022-12-04T02:23:41.888Z,1.83
2022-12-04T02:34:30.187Z,1.58
2022-12-04T02:37:03.720Z,1.90
2022-12-04T02:39:40.484Z,1.92
2022-12-04T02:42:20.670Z,1.45
2022-12-04T02:44:53.849Z,1.63
2022-12-04T02:47:23.915Z,2.45
2022-12-04T02:49:55.739Z,1.73
2022-12-04T02:52:31.526Z,1.48
2022-12-04T02:55:08.376Z,2.20
2022-12-04T02:57:44.257Z,1.95
2022-12-04T03:00:11.539Z,2.35
2022-12-04T03:02:48.788Z,1.15
2022-12-04T03:05:23.518Z,1.63
2022-12-04T03:07:57.939Z,2.17
2022-12-04T03:10:30.765Z,1.73
2022-12-04T03:13:06.317Z,1.63
2022-12-04T03:15:42.485Z,1.63
2022-12-04T03:20:58.125Z,2.10
2022-12-04T03:23:31.581Z,2.28
2022-12-04T03:31:22.717Z,3.05
2022-12-04T03:33:52.860Z,3.47
2022-12-04T03:36:25.757Z,3.25
2022-12-04T03:44:23.763Z,2.97
2022-12-04T03:49:39.150Z,3.58
2022-12-04T03:52:27.680Z,3.60
2022-12-04T03:55:01.938Z,2.75
2022-12-04T03:57:32.967Z,3.83
2022-12-04T04:00:06.613Z,5.43
2022-12-04T04:02:37.582Z,3.72
2022-12-04T04:05:08.832Z,4.30
2022-12-04T04:07:43.193Z,4.43
2022-12-04T04:10:21.932Z,4.10
2022-12-04T04:13:14.742Z,4.45
2022-12-04T04:16:08.964Z,3.65
2022-12-04T04:18:56.153Z,4.88
2022-12-04T04:21:48.485Z,4.20
2022-12-04T04:24:30.578Z,4.10
2022-12-04T04:26:58.815Z,2.08
2022-12-04T04:29:26.134Z,3.67
2022-12-04T04:32:11.360Z,4.35
2022-12-04T04:43:03.169Z,2.35
2022-12-04T04:45:36.228Z,3.38
2022-12-04T04:48:11.315Z,2.05
2022-12-04T04:50:39.014Z,2.33
2022-12-04T04:53:10.767Z,2.45
2022-12-04T04:55:38.499Z,2.58
2022-12-04T04:58:15.970Z,2.63
2022-12-04T05:03:26.766Z,2.47
2022-12-04T05:05:53.365Z,2.83
2022-12-04T05:08:19.928Z,2.25
2022-12-04T05:10:46.491Z,2.05
2022-12-04T05:13:13.897Z,2.40
2022-12-04T05:15:40.492Z,2.78
2022-12-04T05:18:07.628Z,2.47
2022-12-04T05:20:34.442Z,2.63
2022-12-04T05:23:00.965Z,2.83
2022-12-04T05:25:28.025Z,2.33
2022-12-04T05:27:54.551Z,1.73
2022-12-04T05:30:21.148Z,2.13
2022-12-04T05:32:47.726Z,2.58
2022-12-04T05:35:14.413Z,2.38
2022-12-04T05:37:41.008Z,3.10
2022-12-04T05:40:08.935Z,3.20
2022-12-04T05:42:35.525Z,2.58
2022-12-04T05:45:02.126Z,3.08
2022-12-04T05:47:28.684Z,2.90
2022-12-04T05:49:55.429Z,1.75
2022-12-04T05:52:22.146Z,3.00
2022-12-04T05:54:48.721Z,4.00
2022-12-04T05:57:15.254Z,2.60
2022-12-04T05:59:41.805Z,2.90
2022-12-04T06:02:08.440Z,3.17
2022-12-04T06:04:37.523Z,2.25
2022-12-04T06:07:04.213Z,3.42
2022-12-04T06:09:30.912Z,3.25
2022-12-04T06:11:58.349Z,3.17
2022-12-04T06:14:25.270Z,2.58
2022-12-04T06:16:51.888Z,3.38
2022-12-04T06:19:20.028Z,2.88
2022-12-04T06:21:48.162Z,2.03
2022-12-04T06:24:18.038Z,3.38
2022-12-04T06:27:11.103Z,3.72
2022-12-04T06:29:32.121Z,2.88
2022-12-04T06:31:59.190Z,3.13
2022-12-04T06:34:25.800Z,2.88
2022-12-04T06:36:52.339Z,2.70
2022-12-04T06:39:19.283Z,2.33
2022-12-04T06:41:47.567Z,3.03
2022-12-04T06:44:15.512Z,3.10
2022-12-04T06:46:46.504Z,3.50
2022-12-04T06:49:13.987Z,2.92
2022-12-04T06:51:41.026Z,3.33
2022-12-04T06:54:08.988Z,2.65
2022-12-04T06:56:35.655Z,2.63
2022-12-04T06:59:04.196Z,3.25
2022-12-04T07:01:33.128Z,2.80
2022-12-04T07:04:01.286Z,2.92
2022-12-04T07:11:43.133Z,4.85
2022-12-04T07:14:10.634Z,3.10
2022-12-04T07:16:41.164Z,3.05
2022-12-04T07:19:09.911Z,2.80
2022-12-04T07:21:36.443Z,2.92
2022-12-04T07:24:03.076Z,3.60
2022-12-04T07:26:31.060Z,3.05
2022-12-04T07:28:59.074Z,3.80
2022-12-04T07:31:27.679Z,3.78
2022-12-04T07:33:55.045Z,2.70
2022-12-04T07:36:23.595Z,3.03
2022-12-04T07:38:50.761Z,2.75
2022-12-04T07:41:18.126Z,2.75
2022-12-04T07:43:45.062Z,2.78
2022-12-04T07:46:15.248Z,3.08
2022-12-04T07:48:41.956Z,3.33
2022-12-04T07:51:11.499Z,3.40
2022-12-04T07:53:38.869Z,4.70
2022-12-04T07:56:06.775Z,3.85
2022-12-04T07:58:34.034Z,4.32
2022-12-04T08:01:20.354Z,4.43
2022-12-04T08:03:49.288Z,4.53
2022-12-04T08:06:18.473Z,3.58
2022-12-04T08:08:45.668Z,3.78
2022-12-04T08:11:14.425Z,3.92
2022-12-04T08:13:41.011Z,3.85
2022-12-04T08:16:10.185Z,3.88
2022-12-04T08:18:37.251Z,5.10
2022-12-04T08:21:07.713Z,4.70
2022-12-04T08:26:01.867Z,5.90
2022-12-04T08:28:29.651Z,6.03
2022-12-04T08:30:56.351Z,6.47
2022-12-04T08:33:23.076Z,7.22
2022-12-04T08:35:49.650Z,5.68
2022-12-04T08:38:16.196Z,5.47
2022-12-04T08:40:42.760Z,6.80
2022-12-04T08:43:09.382Z,6.68
2022-12-04T08:45:35.911Z,7.80
2022-12-04T08:48:02.506Z,6.22
2022-12-04T08:50:29.087Z,6.50
2022-12-04T08:52:55.661Z,6.90
2022-12-04T08:55:22.261Z,6.60
2022-12-04T08:57:52.415Z,7.03
2022-12-04T09:00:19.893Z,5.82
2022-12-04T09:02:49.262Z,7.40
2022-12-04T09:05:16.566Z,6.22
2022-12-04T09:07:43.177Z,6.68
2022-12-04T09:10:10.477Z,8.48
2022-12-04T09:12:37.053Z,7.65
2022-12-04T09:15:03.806Z,6.95
2022-12-04T09:17:30.342Z,7.97
2022-12-04T09:20:00.920Z,6.45
2022-12-04T09:22:40.327Z,8.05
2022-12-04T09:25:14.630Z,6.68
2022-12-04T09:27:42.829Z,8.30
2022-12-04T09:30:10.760Z,6.53
2022-12-04T09:32:37.609Z,9.32
2022-12-04T09:35:05.504Z,7.95
2022-12-04T09:37:33.782Z,8.23
2022-12-04T09:40:00.342Z,9.13
2022-12-04T09:42:52.776Z,8.35
2022-12-04T09:45:24.097Z,6.93
2022-12-04T09:47:54.026Z,7.10
2022-12-04T09:50:29.436Z,7.88
2022-12-04T09:53:06.142Z,6.53
2022-12-04T09:55:41.329Z,8.32
2022-12-04T09:58:14.580Z,8.38
2022-12-04T10:00:46.212Z,7.75
2022-12-04T10:03:16.509Z,9.00
2022-12-04T10:08:25.713Z,10.45
2022-12-04T10:13:50.113Z,7.70
2022-12-04T10:24:55.830Z,8.45
2022-12-04T10:27:48.348Z,9.07
2022-12-04T10:32:59.236Z,9.00
2022-12-04T10:35:30.149Z,8.88
2022-12-04T10:38:02.424Z,8.00
2022-12-04T10:43:17.120Z,9.18
2022-12-04T10:45:43.779Z,7.30
2022-12-04T10:48:22.853Z,8.45
2022-12-04T10:50:49.447Z,8.73
2022-12-04T10:53:16.811Z,8.95
2022-12-04T10:55:43.829Z,8.90
2022-12-04T10:58:19.963Z,9.00
2022-12-04T11:01:03.623Z,8.95
2022-12-04T11:03:31.257Z,7.22
2022-12-04T11:06:03.780Z,8.00
2022-12-04T11:08:40.613Z,5.75
2022-12-04T11:11:11.417Z,9.63
2022-12-04T11:13:38.882Z,8.10
2022-12-04T11:16:07.469Z,8.40
2022-12-04T11:18:47.211Z,7.90
2022-12-04T11:21:18.482Z,7.53
2022-12-04T11:23:48.817Z,8.20
2022-12-04T11:26:18.405Z,8.68
2022-12-04T11:28:53.257Z,8.25
2022-12-04T11:31:22.775Z,8.00
2022-12-04T11:33:54.691Z,8.77
2022-12-04T11:36:32.746Z,8.30
2022-12-04T11:39:20.454Z,8.95
2022-12-04T11:41:47.668Z,8.30
2022-12-04T11:47:04.064Z,9.93
2022-12-04T11:49:32.664Z,8.95
2022-12-04T11:52:26.390Z,9.05
2022-12-04T12:25:24.136Z,9.13
2022-12-04T12:33:24.939Z,8.20
2022-12-04T12:36:10.666Z,8.60
2022-12-04T12:39:01.369Z,7.45
2022-12-04T12:41:39.254Z,7.20
2022-12-04T12:46:49.887Z,4.85
2022-12-04T12:52:01.848Z,6.10
2022-12-04T12:59:52.570Z,7.25
2022-12-04T13:05:04.270Z,7.07
2022-12-04T13:08:10.886Z,7.00
2022-12-04T13:10:44.880Z,6.18
2022-12-04T13:13:19.866Z,7.15
2022-12-04T13:15:53.826Z,7.25
2022-12-04T13:18:28.267Z,6.80
2022-12-04T13:20:59.470Z,6.57
2022-12-04T13:42:25.751Z,6.18
2022-12-04T13:44:59.928Z,6.10
2022-12-04T13:47:31.849Z,5.50
2022-12-04T13:50:28.078Z,5.70
2022-12-04T13:52:55.327Z,6.90
2022-12-04T14:00:43.186Z,6.95
2022-12-04T14:03:30.403Z,6.05
2022-12-04T14:05:57.092Z,5.78
2022-12-04T14:08:26.779Z,6.38
2022-12-04T14:11:01.458Z,5.20
2022-12-04T14:13:40.684Z,5.22
2022-12-04T14:16:17.342Z,5.38
2022-12-04T14:18:48.972Z,9.07
2022-12-04T14:21:15.672Z,8.68
2022-12-04T14:23:43.476Z,10.25
2022-12-04T14:32:06.322Z,10.00
2022-12-04T14:34:35.414Z,9.57
2022-12-04T14:37:03.281Z,14.70
2022-12-04T14:39:44.612Z,9.73
2022-12-04T14:42:16.282Z,7.43
2022-12-04T14:44:45.842Z,8.57
2022-12-04T14:50:16.574Z,6.00
2022-12-04T14:52:53.341Z,4.90
2022-12-04T14:58:24.614Z,7.05
2022-12-04T15:00:54.663Z,4.57
2022-12-04T15:03:22.317Z,8.27
2022-12-04T15:05:50.262Z,6.13
2022-12-04T15:08:17.290Z,6.68
2022-12-04T15:11:11.195Z,6.40
2022-12-04T15:13:39.126Z,6.63
2022-12-04T15:16:16.326Z,6.22
2022-12-04T15:18:54.798Z,7.00
2022-12-04T15:21:23.737Z,6.60
2022-12-04T15:23:50.699Z,7.10
2022-12-04T15:26:20.968Z,7.50
2022-12-04T15:28:52.399Z,7.90
2022-12-04T15:31:23.231Z,7.93
2022-12-04T15:33:53.521Z,7.95
2022-12-04T15:36:50.007Z,7.68
2022-12-04T15:39:20.351Z,8.30
2022-12-04T15:41:47.042Z,7.93
2022-12-04T15:44:31.340Z,7.25
2022-12-04T15:47:01.102Z,7.68
2022-12-04T15:49:30.198Z,9.57
2022-12-04T15:52:18.048Z,8.10
2022-12-04T15:57:33.885Z,6.18
2022-12-04T16:00:05.170Z,6.13
2022-12-04T16:02:40.271Z,6.25
2022-12-04T16:08:24.530Z,10.15
2022-12-04T16:14:16.298Z,9.18
2022-12-04T16:16:46.275Z,7.65
2022-12-04T16:19:32.929Z,8.13
2022-12-04T16:22:01.368Z,8.38
2022-12-04T16:24:28.213Z,7.82
2022-12-04T16:26:56.284Z,7.05
2022-12-04T16:29:23.945Z,6.90
2022-12-04T16:31:51.198Z,5.35
2022-12-04T16:34:18.279Z,6.72
2022-12-04T16:36:44.938Z,6.10
2022-12-04T16:39:11.524Z,5.60
2022-12-04T16:41:38.083Z,5.13
2022-12-04T16:46:50.768Z,6.15
2022-12-04T16:49:17.366Z,5.93
2022-12-04T16:51:49.564Z,4.55
2022-12-04T16:54:16.896Z,5.25
2022-12-04T16:56:43.593Z,7.20
2022-12-04T16:59:12.189Z,6.40
2022-12-04T17:01:45.243Z,7.72
2022-12-04T17:04:11.932Z,6.18
2022-12-04T17:06:38.958Z,6.78
2022-12-04T17:09:05.829Z,7.68
2022-12-04T17:11:32.402Z,8.00
2022-12-04T17:13:58.969Z,12.13
2022-12-04T17:16:25.581Z,10.50
2022-12-04T17:18:52.241Z,9.85
2022-12-04T17:21:18.846Z,11.60
2022-12-04T17:23:45.382Z,8.07
2022-12-04T17:26:14.447Z,7.80
2022-12-04T17:28:41.585Z,8.25
2022-12-04T17:31:18.628Z,8.32
2022-12-04T17:33:45.990Z,6.63
2022-12-04T17:36:16.023Z,6.38
2022-12-04T17:38:43.377Z,6.78
2022-12-04T17:41:13.991Z,7.30
2022-12-04T17:43:42.081Z,7.07
2022-12-04T17:46:12.206Z,6.55
2022-12-04T17:48:39.582Z,7.50
2022-12-04T17:51:10.295Z,5.80
2022-12-04T17:53:37.657Z,6.20
2022-12-04T17:56:07.712Z,9.68
2022-12-04T17:58:35.644Z,6.75
2022-12-04T18:01:06.662Z,4.75
2022-12-04T18:03:34.242Z,7.32
2022-12-04T18:06:01.723Z,6.43
2022-12-04T18:08:29.567Z,5.50
2022-12-04T18:10:57.314Z,8.10
2022-12-04T18:13:24.302Z,6.00
2022-12-04T18:15:50.876Z,6.90
2022-12-04T18:18:17.406Z,7.45
2022-12-04T18:20:43.977Z,5.55
2022-12-04T18:23:10.566Z,6.30
2022-12-04T18:25:37.125Z,7.07
2022-12-04T18:28:03.709Z,5.97
2022-12-04T18:30:30.250Z,6.45
2022-12-04T18:32:58.318Z,5.40
2022-12-04T18:35:24.871Z,9.60
2022-12-04T18:37:51.414Z,12.40
2022-12-04T18:40:18.075Z,13.15
2022-12-04T18:42:44.734Z,8.10
2022-12-04T18:45:11.482Z,7.10
2022-12-04T18:47:38.063Z,7.25
2022-12-04T18:50:05.108Z,7.32
2022-12-04T18:52:35.879Z,8.45
2022-12-04T18:55:02.720Z,10.63
2022-12-04T18:57:29.291Z,15.85
2022-12-04T18:59:56.276Z,8.50
2022-12-04T19:02:23.219Z,8.07
2022-12-04T19:04:49.940Z,8.60
2022-12-04T19:07:18.691Z,7.18
2022-12-04T19:10:10.441Z,5.22
2022-12-04T19:12:32.231Z,6.18
2022-12-04T19:14:58.751Z,7.15
2022-12-04T19:17:25.284Z,6.95
2022-12-04T19:19:51.828Z,4.47
2022-12-04T19:22:18.448Z,6.88
2022-12-04T19:24:45.034Z,5.38
2022-12-04T19:27:12.100Z,6.75
2022-12-04T19:29:40.779Z,4.30
2022-12-04T19:32:08.798Z,5.10
2022-12-04T19:34:35.668Z,5.20
2022-12-04T19:37:02.456Z,4.97
2022-12-04T19:39:29.062Z,3.53
2022-12-04T19:41:55.631Z,2.88
2022-12-04T19:47:09.254Z,6.88
2022-12-04T19:49:35.815Z,6.22
2022-12-04T19:52:02.462Z,7.10
2022-12-04T19:54:30.312Z,4.88
2022-12-04T19:56:56.838Z,3.85
2022-12-04T19:59:23.378Z,4.15
2022-12-04T20:01:50.089Z,4.38
2022-12-04T20:04:17.255Z,4.60
2022-12-04T20:06:45.723Z,4.68
2022-12-04T20:09:15.684Z,5.25
2022-12-04T20:11:42.685Z,3.85
2022-12-04T20:14:10.176Z,5.47
2022-12-04T20:16:37.822Z,5.03
2022-12-04T20:19:06.528Z,3.78
2022-12-04T20:21:33.179Z,4.93
2022-12-04T20:24:04.077Z,4.10
2022-12-04T20:26:35.747Z,5.63
2022-12-04T20:29:02.361Z,4.00
2022-12-04T20:31:32.132Z,3.83
2022-12-04T20:34:01.608Z,3.67
2022-12-04T20:36:30.961Z,5.68
2022-12-04T20:38:59.001Z,4.13
2022-12-04T20:41:27.788Z,3.10
2022-12-04T20:43:54.440Z,4.03
2022-12-04T20:46:24.660Z,4.80
2022-12-04T20:48:53.390Z,4.38
2022-12-04T20:51:24.060Z,5.50
2022-12-04T20:53:52.137Z,3.65
2022-12-04T20:56:20.456Z,4.40
2022-12-04T20:58:47.022Z,3.88
2022-12-04T21:01:16.352Z,3.60
2022-12-04T21:03:43.398Z,4.07
2022-12-04T21:06:15.063Z,4.03
2022-12-04T21:08:57.950Z,4.45
2022-12-04T21:11:27.663Z,4.28
2022-12-04T21:14:15.603Z,3.58
2022-12-04T21:16:42.796Z,5.13
2022-12-04T21:19:12.306Z,4.03
2022-12-04T21:21:39.025Z,3.22
2022-12-04T21:24:07.151Z,4.50
2022-12-04T21:26:34.255Z,4.38
2022-12-04T21:29:02.020Z,4.68
2022-12-04T21:31:29.781Z,4.22
2022-12-04T21:33:58.852Z,5.70
2022-12-04T21:36:26.767Z,5.05
2022-12-04T21:38:53.966Z,4.72
2022-12-04T21:41:40.976Z,4.60
2022-12-04T21:44:10.343Z,3.65
2022-12-04T21:46:37.270Z,3.80
2022-12-04T21:49:04.166Z,4.57
2022-12-04T21:51:56.277Z,5.05
2022-12-04T21:54:17.626Z,4.25
2022-12-04T21:56:44.469Z,4.60
2022-12-04T21:59:11.294Z,4.68
2022-12-04T22:01:38.362Z,4.85
2022-12-04T22:04:04.988Z,5.25
2022-12-04T22:06:36.201Z,4.80
2022-12-04T22:09:06.370Z,4.30
2022-12-04T22:11:32.998Z,5.18
2022-12-04T22:13:59.560Z,5.25
2022-12-04T22:16:30.355Z,3.53
2022-12-04T22:18:58.670Z,3.80
2022-12-04T22:21:26.708Z,4.15
2022-12-04T22:24:02.416Z,4.53
2022-12-04T22:26:30.036Z,4.53
2022-12-04T22:28:57.619Z,4.72
2022-12-04T22:31:26.467Z,5.55
2022-12-04T22:33:55.484Z,5.25
2022-12-04T22:36:25.010Z,4.07
2022-12-04T22:39:08.927Z,4.65
2022-12-04T22:41:36.247Z,5.97
2022-12-04T22:44:03.274Z,4.90
2022-12-04T22:46:29.962Z,4.68
2022-12-04T22:48:58.665Z,5.30
2022-12-04T22:51:25.365Z,4.55
2022-12-04T22:53:55.345Z,4.55
2022-12-04T22:58:58.694Z,6.07
2022-12-04T23:01:28.066Z,5.68
2022-12-04T23:03:55.332Z,5.57
2022-12-04T23:06:24.428Z,5.53
2022-12-04T23:09:08.491Z,5.68
2022-12-04T23:11:36.033Z,5.78
2022-12-04T23:14:05.070Z,5.53
2022-12-04T23:16:34.443Z,4.88
2022-12-04T23:19:01.219Z,5.40
2022-12-04T23:21:28.556Z,6.13
2022-12-04T23:23:56.213Z,4.82
2022-12-04T23:26:26.634Z,6.28
2022-12-04T23:31:20.012Z,5.68
2022-12-04T23:33:46.790Z,5.85
2022-12-04T23:36:14.392Z,5.95
2022-12-04T23:38:42.525Z,5.07
2022-12-04T23:43:49.104Z,6.35
2022-12-04T23:46:18.305Z,8.02
2022-12-04T23:48:46.058Z,7.25
2022-12-04T23:51:16.212Z,6.38
2022-12-04T23:53:43.742Z,6.97
2022-12-04T23:58:49.601Z,6.63
